sensor_id;sensor_type;location;lat;lon;timestamp;P1;durP1;ratioP1;P2;durP2;ratioP2
4084;SDS011;2057;50.858;6.572;2023-06-26T00:01:17;7.90;;;7.20;;
4084;SDS011;2057;50.858;6.572;2023-06-26T00:03:45;8.10;;;7.30;;
4084;SDS011;2057;50.858;6.572;2023-06-26T00:06:11;12.10;;;6.63;;
4084;SDS011;2057;50.858;6.572;2023-06-26T00:08:36;12.87;;;7.50;;
4084;SDS011;2057;50.858;6.572;2023-06-26T00:11:02;11.37;;;8.20;;
4084;SDS011;2057;50.858;6.572;2023-06-26T00:13:27;8.40;;;7.60;;
4084;SDS011;2057;50.858;6.572;2023-06-26T00:15:53;9.57;;;7.87;;
4084;SDS011;2057;50.858;6.572;2023-06-26T00:18:18;11.43;;;7.20;;
4084;SDS011;2057;50.858;6.572;2023-06-26T00:20:43;10.60;;;6.83;;
4084;SDS011;2057;50.858;6.572;2023-06-26T00:23:10;11.10;;;7.40;;
4084;SDS011;2057;50.858;6.572;2023-06-26T00:25:36;13.60;;;8.13;;
4084;SDS011;2057;50.858;6.572;2023-06-26T00:28:02;9.47;;;7.60;;
4084;SDS011;2057;50.858;6.572;2023-06-26T00:30:27;9.30;;;7.57;;
4084;SDS011;2057;50.858;6.572;2023-06-26T00:32:52;8.63;;;7.73;;
4084;SDS011;2057;50.858;6.572;2023-06-26T00:35:18;8.77;;;7.87;;
4084;SDS011;2057;50.858;6.572;2023-06-26T00:37:43;10.50;;;8.50;;
4084;SDS011;2057;50.858;6.572;2023-06-26T00:40:09;10.23;;;8.30;;
4084;SDS011;2057;50.858;6.572;2023-06-26T00:42:35;8.63;;;7.00;;
4084;SDS011;2057;50.858;6.572;2023-06-26T00:45:00;10.90;;;8.83;;
4084;SDS011;2057;50.858;6.572;2023-06-26T00:47:25;11.37;;;8.83;;
4084;SDS011;2057;50.858;6.572;2023-06-26T00:49:52;23.03;;;9.07;;
4084;SDS011;2057;50.858;6.572;2023-06-26T00:52:19;14.63;;;7.43;;
4084;SDS011;2057;50.858;6.572;2023-06-26T00:54:45;17.93;;;9.03;;
4084;SDS011;2057;50.858;6.572;2023-06-26T00:57:10;8.80;;;8.00;;
4084;SDS011;2057;50.858;6.572;2023-06-26T00:59:36;12.13;;;7.93;;
4084;SDS011;2057;50.858;6.572;2023-06-26T01:02:01;11.53;;;8.57;;
4084;SDS011;2057;50.858;6.572;2023-06-26T01:04:26;9.60;;;8.60;;
4084;SDS011;2057;50.858;6.572;2023-06-26T01:06:52;10.03;;;8.47;;
4084;SDS011;2057;50.858;6.572;2023-06-26T01:09:19;14.90;;;9.60;;
4084;SDS011;2057;50.858;6.572;2023-06-26T01:11:45;13.60;;;10.17;;
4084;SDS011;2057;50.858;6.572;2023-06-26T01:14:11;11.07;;;8.40;;
4084;SDS011;2057;50.858;6.572;2023-06-26T01:16:37;10.20;;;9.10;;
4084;SDS011;2057;50.858;6.572;2023-06-26T01:19:09;9.43;;;8.47;;
4084;SDS011;2057;50.858;6.572;2023-06-26T01:21:40;10.47;;;8.10;;
4084;SDS011;2057;50.858;6.572;2023-06-26T01:24:10;14.50;;;8.77;;
4084;SDS011;2057;50.858;6.572;2023-06-26T01:26:45;12.03;;;9.70;;
4084;SDS011;2057;50.858;6.572;2023-06-26T01:29:13;15.63;;;9.13;;
4084;SDS011;2057;50.858;6.572;2023-06-26T01:31:42;12.03;;;9.03;;
4084;SDS011;2057;50.858;6.572;2023-06-26T01:34:08;10.87;;;7.80;;
4084;SDS011;2057;50.858;6.572;2023-06-26T01:36:34;11.40;;;9.10;;
4084;SDS011;2057;50.858;6.572;2023-06-26T01:38:59;10.33;;;8.17;;
4084;SDS011;2057;50.858;6.572;2023-06-26T01:41:25;10.60;;;8.70;;
4084;SDS011;2057;50.858;6.572;2023-06-26T01:46:43;8.80;;;7.20;;
4084;SDS011;2057;50.858;6.572;2023-06-26T01:57:54;10.43;;;7.90;;
4084;SDS011;2057;50.858;6.572;2023-06-26T02:00:21;13.90;;;8.47;;
4084;SDS011;2057;50.858;6.572;2023-06-26T02:02:48;15.23;;;7.73;;
4084;SDS011;2057;50.858;6.572;2023-06-26T02:05:14;23.37;;;7.70;;
4084;SDS011;2057;50.858;6.572;2023-06-26T02:07:39;12.70;;;8.57;;
4084;SDS011;2057;50.858;6.572;2023-06-26T02:10:05;18.73;;;8.70;;
4084;SDS011;2057;50.858;6.572;2023-06-26T02:12:31;14.30;;;8.87;;
4084;SDS011;2057;50.858;6.572;2023-06-26T02:14:56;8.83;;;7.43;;
4084;SDS011;2057;50.858;6.572;2023-06-26T02:17:21;10.10;;;7.17;;
4084;SDS011;2057;50.858;6.572;2023-06-26T02:19:47;13.40;;;6.70;;
4084;SDS011;2057;50.858;6.572;2023-06-26T02:22:15;9.00;;;6.33;;
4084;SDS011;2057;50.858;6.572;2023-06-26T02:24:41;9.43;;;7.60;;
4084;SDS011;2057;50.858;6.572;2023-06-26T02:27:07;32.77;;;7.67;;
4084;SDS011;2057;50.858;6.572;2023-06-26T02:29:33;8.23;;;7.00;;
4084;SDS011;2057;50.858;6.572;2023-06-26T02:31:58;9.00;;;6.93;;
4084;SDS011;2057;50.858;6.572;2023-06-26T02:34:24;6.83;;;6.10;;
4084;SDS011;2057;50.858;6.572;2023-06-26T02:36:49;17.20;;;6.73;;
4084;SDS011;2057;50.858;6.572;2023-06-26T02:39:14;16.10;;;7.57;;
4084;SDS011;2057;50.858;6.572;2023-06-26T02:41:40;8.63;;;6.50;;
4084;SDS011;2057;50.858;6.572;2023-06-26T02:44:05;12.00;;;6.70;;
4084;SDS011;2057;50.858;6.572;2023-06-26T02:46:31;9.30;;;7.20;;
4084;SDS011;2057;50.858;6.572;2023-06-26T02:48:57;12.47;;;6.60;;
4084;SDS011;2057;50.858;6.572;2023-06-26T02:51:22;15.40;;;7.40;;
4084;SDS011;2057;50.858;6.572;2023-06-26T02:53:48;11.43;;;7.37;;
4084;SDS011;2057;50.858;6.572;2023-06-26T02:56:13;10.63;;;6.63;;
4084;SDS011;2057;50.858;6.572;2023-06-26T02:58:38;15.03;;;7.57;;
4084;SDS011;2057;50.858;6.572;2023-06-26T03:01:04;10.80;;;7.27;;
4084;SDS011;2057;50.858;6.572;2023-06-26T03:03:29;12.00;;;7.10;;
4084;SDS011;2057;50.858;6.572;2023-06-26T03:05:54;13.30;;;6.70;;
4084;SDS011;2057;50.858;6.572;2023-06-26T03:08:19;12.07;;;6.73;;
4084;SDS011;2057;50.858;6.572;2023-06-26T03:10:45;11.20;;;8.13;;
4084;SDS011;2057;50.858;6.572;2023-06-26T03:13:10;9.63;;;7.47;;
4084;SDS011;2057;50.858;6.572;2023-06-26T03:15:35;14.10;;;7.50;;
4084;SDS011;2057;50.858;6.572;2023-06-26T03:18:01;9.90;;;7.33;;
4084;SDS011;2057;50.858;6.572;2023-06-26T03:20:26;10.53;;;7.00;;
4084;SDS011;2057;50.858;6.572;2023-06-26T03:22:51;16.23;;;8.23;;
4084;SDS011;2057;50.858;6.572;2023-06-26T03:25:17;9.10;;;6.90;;
4084;SDS011;2057;50.858;6.572;2023-06-26T03:27:42;10.67;;;7.50;;
4084;SDS011;2057;50.858;6.572;2023-06-26T03:30:08;11.30;;;7.07;;
4084;SDS011;2057;50.858;6.572;2023-06-26T03:32:34;14.23;;;7.60;;
4084;SDS011;2057;50.858;6.572;2023-06-26T03:34:59;15.83;;;8.57;;
4084;SDS011;2057;50.858;6.572;2023-06-26T03:37:28;10.10;;;8.67;;
4084;SDS011;2057;50.858;6.572;2023-06-26T03:39:53;12.83;;;8.37;;
4084;SDS011;2057;50.858;6.572;2023-06-26T03:42:18;12.73;;;8.50;;
4084;SDS011;2057;50.858;6.572;2023-06-26T03:44:44;16.50;;;7.40;;
4084;SDS011;2057;50.858;6.572;2023-06-26T03:47:09;14.90;;;8.00;;
4084;SDS011;2057;50.858;6.572;2023-06-26T03:49:34;12.43;;;6.87;;
4084;SDS011;2057;50.858;6.572;2023-06-26T03:52:00;14.53;;;7.13;;
4084;SDS011;2057;50.858;6.572;2023-06-26T03:54:25;12.77;;;8.17;;
4084;SDS011;2057;50.858;6.572;2023-06-26T03:56:51;12.87;;;7.80;;
4084;SDS011;2057;50.858;6.572;2023-06-26T03:59:16;15.27;;;7.07;;
4084;SDS011;2057;50.858;6.572;2023-06-26T04:01:41;11.33;;;7.27;;
4084;SDS011;2057;50.858;6.572;2023-06-26T04:04:07;8.97;;;6.87;;
4084;SDS011;2057;50.858;6.572;2023-06-26T04:06:32;10.77;;;5.93;;
4084;SDS011;2057;50.858;6.572;2023-06-26T04:08:58;15.30;;;7.20;;
4084;SDS011;2057;50.858;6.572;2023-06-26T04:11:24;16.90;;;7.20;;
4084;SDS011;2057;50.858;6.572;2023-06-26T04:13:50;9.43;;;6.30;;
4084;SDS011;2057;50.858;6.572;2023-06-26T04:16:15;8.70;;;6.23;;
4084;SDS011;2057;50.858;6.572;2023-06-26T04:18:41;11.40;;;7.03;;
4084;SDS011;2057;50.858;6.572;2023-06-26T04:21:10;9.83;;;6.77;;
4084;SDS011;2057;50.858;6.572;2023-06-26T04:23:39;9.37;;;6.67;;
4084;SDS011;2057;50.858;6.572;2023-06-26T04:26:12;8.80;;;6.77;;
4084;SDS011;2057;50.858;6.572;2023-06-26T04:28:39;10.43;;;7.80;;
4084;SDS011;2057;50.858;6.572;2023-06-26T04:31:06;9.57;;;7.57;;
4084;SDS011;2057;50.858;6.572;2023-06-26T04:33:31;12.90;;;8.60;;
4084;SDS011;2057;50.858;6.572;2023-06-26T04:35:57;12.57;;;6.97;;
4084;SDS011;2057;50.858;6.572;2023-06-26T04:38:22;7.93;;;7.03;;
4084;SDS011;2057;50.858;6.572;2023-06-26T04:40:48;13.77;;;6.63;;
4084;SDS011;2057;50.858;6.572;2023-06-26T04:43:14;11.30;;;6.40;;
4084;SDS011;2057;50.858;6.572;2023-06-26T04:45:39;11.07;;;7.23;;
4084;SDS011;2057;50.858;6.572;2023-06-26T04:48:05;6.53;;;5.83;;
4084;SDS011;2057;50.858;6.572;2023-06-26T04:50:33;8.00;;;6.80;;
4084;SDS011;2057;50.858;6.572;2023-06-26T04:52:59;10.20;;;6.90;;
4084;SDS011;2057;50.858;6.572;2023-06-26T04:55:24;17.63;;;6.77;;
4084;SDS011;2057;50.858;6.572;2023-06-26T04:57:50;6.93;;;5.40;;
4084;SDS011;2057;50.858;6.572;2023-06-26T05:00:16;9.77;;;5.13;;
4084;SDS011;2057;50.858;6.572;2023-06-26T05:02:41;20.27;;;6.70;;
4084;SDS011;2057;50.858;6.572;2023-06-26T05:05:07;17.03;;;6.50;;
4084;SDS011;2057;50.858;6.572;2023-06-26T05:07:32;9.47;;;5.73;;
4084;SDS011;2057;50.858;6.572;2023-06-26T05:09:58;11.07;;;5.70;;
4084;SDS011;2057;50.858;6.572;2023-06-26T05:12:23;16.77;;;7.40;;
4084;SDS011;2057;50.858;6.572;2023-06-26T05:14:48;11.57;;;6.27;;
4084;SDS011;2057;50.858;6.572;2023-06-26T05:17:14;15.37;;;6.10;;
4084;SDS011;2057;50.858;6.572;2023-06-26T05:19:40;14.73;;;5.60;;
4084;SDS011;2057;50.858;6.572;2023-06-26T05:22:05;10.90;;;5.40;;
4084;SDS011;2057;50.858;6.572;2023-06-26T05:24:36;12.90;;;6.00;;
4084;SDS011;2057;50.858;6.572;2023-06-26T05:27:02;7.37;;;5.70;;
4084;SDS011;2057;50.858;6.572;2023-06-26T05:29:29;18.47;;;6.63;;
4084;SDS011;2057;50.858;6.572;2023-06-26T05:31:57;12.53;;;6.77;;
4084;SDS011;2057;50.858;6.572;2023-06-26T05:34:23;15.97;;;6.23;;
4084;SDS011;2057;50.858;6.572;2023-06-26T05:36:50;10.80;;;5.80;;
4084;SDS011;2057;50.858;6.572;2023-06-26T05:39:16;11.20;;;6.37;;
4084;SDS011;2057;50.858;6.572;2023-06-26T05:41:45;30.37;;;6.23;;
4084;SDS011;2057;50.858;6.572;2023-06-26T05:44:11;18.80;;;6.37;;
4084;SDS011;2057;50.858;6.572;2023-06-26T05:46:36;15.63;;;5.10;;
4084;SDS011;2057;50.858;6.572;2023-06-26T05:49:02;17.93;;;5.83;;
4084;SDS011;2057;50.858;6.572;2023-06-26T05:51:28;14.30;;;5.40;;
4084;SDS011;2057;50.858;6.572;2023-06-26T05:53:54;26.73;;;6.10;;
4084;SDS011;2057;50.858;6.572;2023-06-26T05:56:19;13.90;;;6.30;;
4084;SDS011;2057;50.858;6.572;2023-06-26T05:58:45;19.50;;;5.97;;
4084;SDS011;2057;50.858;6.572;2023-06-26T06:01:11;15.10;;;5.83;;
4084;SDS011;2057;50.858;6.572;2023-06-26T06:03:38;16.70;;;5.67;;
4084;SDS011;2057;50.858;6.572;2023-06-26T06:06:05;26.20;;;6.50;;
4084;SDS011;2057;50.858;6.572;2023-06-26T06:08:30;15.20;;;6.40;;
4084;SDS011;2057;50.858;6.572;2023-06-26T06:10:55;17.10;;;6.50;;
4084;SDS011;2057;50.858;6.572;2023-06-26T06:13:21;20.57;;;5.00;;
4084;SDS011;2057;50.858;6.572;2023-06-26T06:15:46;22.80;;;6.27;;
4084;SDS011;2057;50.858;6.572;2023-06-26T06:18:11;19.53;;;6.30;;
4084;SDS011;2057;50.858;6.572;2023-06-26T06:20:37;23.60;;;6.03;;
4084;SDS011;2057;50.858;6.572;2023-06-26T06:23:02;17.70;;;5.83;;
4084;SDS011;2057;50.858;6.572;2023-06-26T06:25:27;14.33;;;5.90;;
4084;SDS011;2057;50.858;6.572;2023-06-26T06:27:53;15.77;;;5.83;;
4084;SDS011;2057;50.858;6.572;2023-06-26T06:30:18;20.33;;;7.40;;
4084;SDS011;2057;50.858;6.572;2023-06-26T06:32:43;21.20;;;6.70;;
4084;SDS011;2057;50.858;6.572;2023-06-26T06:35:09;17.73;;;7.70;;
4084;SDS011;2057;50.858;6.572;2023-06-26T06:37:37;18.30;;;5.93;;
4084;SDS011;2057;50.858;6.572;2023-06-26T06:40:04;14.07;;;6.30;;
4084;SDS011;2057;50.858;6.572;2023-06-26T06:42:31;18.27;;;5.83;;
4084;SDS011;2057;50.858;6.572;2023-06-26T06:44:57;16.27;;;6.80;;
4084;SDS011;2057;50.858;6.572;2023-06-26T06:47:22;18.97;;;6.70;;
4084;SDS011;2057;50.858;6.572;2023-06-26T06:49:47;17.50;;;7.17;;
4084;SDS011;2057;50.858;6.572;2023-06-26T06:52:13;14.20;;;6.07;;
4084;SDS011;2057;50.858;6.572;2023-06-26T06:54:55;20.53;;;8.00;;
4084;SDS011;2057;50.858;6.572;2023-06-26T06:57:24;15.13;;;6.50;;
4084;SDS011;2057;50.858;6.572;2023-06-26T06:59:50;18.47;;;6.63;;
4084;SDS011;2057;50.858;6.572;2023-06-26T07:02:16;19.50;;;6.90;;
4084;SDS011;2057;50.858;6.572;2023-06-26T07:04:42;11.57;;;6.37;;
4084;SDS011;2057;50.858;6.572;2023-06-26T07:07:07;16.03;;;6.53;;
4084;SDS011;2057;50.858;6.572;2023-06-26T07:09:33;21.57;;;7.60;;
4084;SDS011;2057;50.858;6.572;2023-06-26T07:11:58;19.43;;;7.30;;
4084;SDS011;2057;50.858;6.572;2023-06-26T07:14:25;15.43;;;6.93;;
4084;SDS011;2057;50.858;6.572;2023-06-26T07:16:50;16.17;;;7.40;;
4084;SDS011;2057;50.858;6.572;2023-06-26T07:19:15;17.03;;;7.20;;
4084;SDS011;2057;50.858;6.572;2023-06-26T07:21:41;23.87;;;7.63;;
4084;SDS011;2057;50.858;6.572;2023-06-26T07:24:08;17.20;;;7.60;;
4084;SDS011;2057;50.858;6.572;2023-06-26T07:26:33;21.00;;;7.73;;
4084;SDS011;2057;50.858;6.572;2023-06-26T07:28:58;15.10;;;7.23;;
4084;SDS011;2057;50.858;6.572;2023-06-26T07:31:23;24.40;;;7.77;;
4084;SDS011;2057;50.858;6.572;2023-06-26T07:33:49;20.07;;;7.20;;
4084;SDS011;2057;50.858;6.572;2023-06-26T07:36:14;28.90;;;7.20;;
4084;SDS011;2057;50.858;6.572;2023-06-26T07:38:39;24.03;;;8.20;;
4084;SDS011;2057;50.858;6.572;2023-06-26T07:41:05;33.97;;;8.33;;
4084;SDS011;2057;50.858;6.572;2023-06-26T07:43:30;24.27;;;6.87;;
4084;SDS011;2057;50.858;6.572;2023-06-26T07:45:56;18.93;;;7.20;;
4084;SDS011;2057;50.858;6.572;2023-06-26T07:48:23;13.30;;;6.47;;
4084;SDS011;2057;50.858;6.572;2023-06-26T07:50:49;20.93;;;6.30;;
4084;SDS011;2057;50.858;6.572;2023-06-26T07:53:14;22.23;;;6.73;;
4084;SDS011;2057;50.858;6.572;2023-06-26T07:55:39;22.60;;;6.20;;
4084;SDS011;2057;50.858;6.572;2023-06-26T07:58:05;16.20;;;6.10;;
4084;SDS011;2057;50.858;6.572;2023-06-26T08:00:30;17.23;;;6.60;;
4084;SDS011;2057;50.858;6.572;2023-06-26T08:02:55;15.70;;;5.57;;
4084;SDS011;2057;50.858;6.572;2023-06-26T08:05:20;23.67;;;6.10;;
4084;SDS011;2057;50.858;6.572;2023-06-26T08:07:46;18.63;;;6.23;;
4084;SDS011;2057;50.858;6.572;2023-06-26T08:10:11;39.87;;;5.80;;
4084;SDS011;2057;50.858;6.572;2023-06-26T08:12:37;13.50;;;6.13;;
4084;SDS011;2057;50.858;6.572;2023-06-26T08:15:05;15.07;;;5.10;;
4084;SDS011;2057;50.858;6.572;2023-06-26T08:17:31;12.93;;;5.70;;
4084;SDS011;2057;50.858;6.572;2023-06-26T08:19:56;16.27;;;6.30;;
4084;SDS011;2057;50.858;6.572;2023-06-26T08:22:22;28.07;;;6.87;;
4084;SDS011;2057;50.858;6.572;2023-06-26T08:24:47;23.77;;;6.40;;
4084;SDS011;2057;50.858;6.572;2023-06-26T08:27:12;21.43;;;5.43;;
4084;SDS011;2057;50.858;6.572;2023-06-26T08:29:38;16.03;;;5.97;;
4084;SDS011;2057;50.858;6.572;2023-06-26T08:32:03;16.83;;;4.80;;
4084;SDS011;2057;50.858;6.572;2023-06-26T08:34:28;15.07;;;5.70;;
4084;SDS011;2057;50.858;6.572;2023-06-26T08:36:54;16.10;;;5.37;;
4084;SDS011;2057;50.858;6.572;2023-06-26T08:39:19;13.37;;;6.43;;
4084;SDS011;2057;50.858;6.572;2023-06-26T08:41:44;10.00;;;4.93;;
4084;SDS011;2057;50.858;6.572;2023-06-26T08:44:10;28.00;;;6.10;;
4084;SDS011;2057;50.858;6.572;2023-06-26T08:46:35;20.93;;;5.90;;
4084;SDS011;2057;50.858;6.572;2023-06-26T08:49:02;11.97;;;5.80;;
4084;SDS011;2057;50.858;6.572;2023-06-26T08:51:34;17.10;;;6.20;;
4084;SDS011;2057;50.858;6.572;2023-06-26T08:54:05;14.83;;;5.57;;
4084;SDS011;2057;50.858;6.572;2023-06-26T08:56:38;16.30;;;4.57;;
4084;SDS011;2057;50.858;6.572;2023-06-26T08:59:07;14.73;;;4.90;;
4084;SDS011;2057;50.858;6.572;2023-06-26T09:01:35;20.00;;;7.30;;
4084;SDS011;2057;50.858;6.572;2023-06-26T09:04:01;20.23;;;6.10;;
4084;SDS011;2057;50.858;6.572;2023-06-26T09:06:27;26.33;;;5.20;;
4084;SDS011;2057;50.858;6.572;2023-06-26T09:08:52;18.93;;;5.13;;
4084;SDS011;2057;50.858;6.572;2023-06-26T09:11:18;16.80;;;4.30;;
4084;SDS011;2057;50.858;6.572;2023-06-26T09:13:43;19.27;;;5.07;;
4084;SDS011;2057;50.858;6.572;2023-06-26T09:16:09;17.10;;;4.93;;
4084;SDS011;2057;50.858;6.572;2023-06-26T09:18:35;20.43;;;4.50;;
4084;SDS011;2057;50.858;6.572;2023-06-26T09:21:04;15.30;;;4.80;;
4084;SDS011;2057;50.858;6.572;2023-06-26T09:23:32;25.97;;;6.37;;
4084;SDS011;2057;50.858;6.572;2023-06-26T09:25:57;18.37;;;4.73;;
4084;SDS011;2057;50.858;6.572;2023-06-26T09:28:23;16.30;;;4.67;;
4084;SDS011;2057;50.858;6.572;2023-06-26T09:30:48;15.33;;;4.67;;
4084;SDS011;2057;50.858;6.572;2023-06-26T09:33:16;15.10;;;3.93;;
4084;SDS011;2057;50.858;6.572;2023-06-26T09:35:44;22.40;;;3.70;;
4084;SDS011;2057;50.858;6.572;2023-06-26T09:38:11;12.53;;;3.67;;
4084;SDS011;2057;50.858;6.572;2023-06-26T09:40:37;14.20;;;4.37;;
4084;SDS011;2057;50.858;6.572;2023-06-26T09:43:06;11.37;;;4.17;;
4084;SDS011;2057;50.858;6.572;2023-06-26T09:45:33;13.00;;;3.73;;
4084;SDS011;2057;50.858;6.572;2023-06-26T09:48:05;15.20;;;4.33;;
4084;SDS011;2057;50.858;6.572;2023-06-26T09:50:33;16.53;;;4.70;;
4084;SDS011;2057;50.858;6.572;2023-06-26T09:53:09;18.33;;;3.83;;
4084;SDS011;2057;50.858;6.572;2023-06-26T09:55:35;15.03;;;4.57;;
4084;SDS011;2057;50.858;6.572;2023-06-26T09:58:02;22.47;;;4.13;;
4084;SDS011;2057;50.858;6.572;2023-06-26T10:00:28;7.70;;;3.87;;
4084;SDS011;2057;50.858;6.572;2023-06-26T10:02:53;10.33;;;2.70;;
4084;SDS011;2057;50.858;6.572;2023-06-26T10:05:18;15.60;;;4.03;;
4084;SDS011;2057;50.858;6.572;2023-06-26T10:07:44;11.60;;;4.30;;
4084;SDS011;2057;50.858;6.572;2023-06-26T10:10:11;10.93;;;3.67;;
4084;SDS011;2057;50.858;6.572;2023-06-26T10:12:37;15.33;;;4.20;;
4084;SDS011;2057;50.858;6.572;2023-06-26T10:15:03;9.53;;;3.90;;
4084;SDS011;2057;50.858;6.572;2023-06-26T10:17:30;10.83;;;4.20;;
4084;SDS011;2057;50.858;6.572;2023-06-26T10:20:00;8.27;;;3.47;;
4084;SDS011;2057;50.858;6.572;2023-06-26T10:22:29;5.73;;;2.93;;
4084;SDS011;2057;50.858;6.572;2023-06-26T10:24:58;11.00;;;3.73;;
4084;SDS011;2057;50.858;6.572;2023-06-26T10:27:25;10.50;;;3.80;;
4084;SDS011;2057;50.858;6.572;2023-06-26T10:29:55;9.17;;;2.63;;
4084;SDS011;2057;50.858;6.572;2023-06-26T10:32:24;11.33;;;3.20;;
4084;SDS011;2057;50.858;6.572;2023-06-26T10:34:51;14.40;;;3.73;;
4084;SDS011;2057;50.858;6.572;2023-06-26T10:37:18;7.97;;;3.00;;
4084;SDS011;2057;50.858;6.572;2023-06-26T10:39:47;18.83;;;3.50;;
4084;SDS011;2057;50.858;6.572;2023-06-26T10:42:17;14.37;;;4.53;;
4084;SDS011;2057;50.858;6.572;2023-06-26T10:44:44;19.50;;;4.07;;
4084;SDS011;2057;50.858;6.572;2023-06-26T10:47:11;10.20;;;3.07;;
4084;SDS011;2057;50.858;6.572;2023-06-26T10:49:53;11.17;;;3.50;;
4084;SDS011;2057;50.858;6.572;2023-06-26T10:52:19;16.23;;;3.80;;
4084;SDS011;2057;50.858;6.572;2023-06-26T10:54:44;11.20;;;3.63;;
4084;SDS011;2057;50.858;6.572;2023-06-26T10:57:09;12.90;;;3.00;;
4084;SDS011;2057;50.858;6.572;2023-06-26T10:59:38;9.13;;;3.20;;
4084;SDS011;2057;50.858;6.572;2023-06-26T11:02:04;8.30;;;2.80;;
4084;SDS011;2057;50.858;6.572;2023-06-26T11:04:37;15.13;;;2.90;;
4084;SDS011;2057;50.858;6.572;2023-06-26T11:07:21;11.57;;;3.03;;
4084;SDS011;2057;50.858;6.572;2023-06-26T11:14:59;11.67;;;3.00;;
4084;SDS011;2057;50.858;6.572;2023-06-26T11:17:25;18.70;;;3.77;;
4084;SDS011;2057;50.858;6.572;2023-06-26T11:19:51;11.60;;;3.20;;
4084;SDS011;2057;50.858;6.572;2023-06-26T11:22:17;15.60;;;3.30;;
4084;SDS011;2057;50.858;6.572;2023-06-26T11:24:44;9.53;;;3.27;;
4084;SDS011;2057;50.858;6.572;2023-06-26T11:27:09;6.07;;;2.57;;
4084;SDS011;2057;50.858;6.572;2023-06-26T11:29:35;6.37;;;2.40;;
4084;SDS011;2057;50.858;6.572;2023-06-26T11:32:01;7.97;;;3.43;;
4084;SDS011;2057;50.858;6.572;2023-06-26T11:34:30;11.97;;;3.50;;
4084;SDS011;2057;50.858;6.572;2023-06-26T11:36:56;12.70;;;3.50;;
4084;SDS011;2057;50.858;6.572;2023-06-26T11:39:22;5.10;;;3.03;;
4084;SDS011;2057;50.858;6.572;2023-06-26T11:41:47;6.53;;;2.93;;
4084;SDS011;2057;50.858;6.572;2023-06-26T11:44:13;7.83;;;2.70;;
4084;SDS011;2057;50.858;6.572;2023-06-26T11:46:44;10.53;;;3.10;;
4084;SDS011;2057;50.858;6.572;2023-06-26T11:49:10;10.33;;;3.40;;
4084;SDS011;2057;50.858;6.572;2023-06-26T11:51:36;15.63;;;3.83;;
4084;SDS011;2057;50.858;6.572;2023-06-26T11:54:02;11.17;;;3.50;;
4084;SDS011;2057;50.858;6.572;2023-06-26T11:56:29;6.00;;;2.27;;
4084;SDS011;2057;50.858;6.572;2023-06-26T11:58:55;11.50;;;2.90;;
4084;SDS011;2057;50.858;6.572;2023-06-26T12:04:03;9.50;;;3.10;;
4084;SDS011;2057;50.858;6.572;2023-06-26T12:06:33;7.50;;;2.87;;
4084;SDS011;2057;50.858;6.572;2023-06-26T12:09:04;15.53;;;3.47;;
4084;SDS011;2057;50.858;6.572;2023-06-26T12:11:32;12.33;;;2.83;;
4084;SDS011;2057;50.858;6.572;2023-06-26T12:13:59;8.43;;;3.00;;
4084;SDS011;2057;50.858;6.572;2023-06-26T12:16:27;12.13;;;3.20;;
4084;SDS011;2057;50.858;6.572;2023-06-26T12:19:00;12.57;;;3.40;;
4084;SDS011;2057;50.858;6.572;2023-06-26T12:23:59;9.10;;;2.90;;
4084;SDS011;2057;50.858;6.572;2023-06-26T12:26:25;3.93;;;2.73;;
4084;SDS011;2057;50.858;6.572;2023-06-26T12:28:52;6.73;;;2.17;;
4084;SDS011;2057;50.858;6.572;2023-06-26T12:31:19;14.30;;;2.80;;
4084;SDS011;2057;50.858;6.572;2023-06-26T12:33:47;10.67;;;2.63;;
4084;SDS011;2057;50.858;6.572;2023-06-26T12:36:13;4.07;;;2.47;;
4084;SDS011;2057;50.858;6.572;2023-06-26T12:38:40;11.70;;;3.57;;
4084;SDS011;2057;50.858;6.572;2023-06-26T12:41:11;9.23;;;2.63;;
4084;SDS011;2057;50.858;6.572;2023-06-26T12:43:38;6.10;;;2.20;;
4084;SDS011;2057;50.858;6.572;2023-06-26T12:46:04;8.37;;;2.60;;
4084;SDS011;2057;50.858;6.572;2023-06-26T12:51:15;6.47;;;2.43;;
4084;SDS011;2057;50.858;6.572;2023-06-26T12:53:42;8.80;;;2.23;;
4084;SDS011;2057;50.858;6.572;2023-06-26T12:56:08;11.73;;;2.17;;
4084;SDS011;2057;50.858;6.572;2023-06-26T12:58:34;14.87;;;2.30;;
4084;SDS011;2057;50.858;6.572;2023-06-26T13:01:04;7.90;;;2.80;;
4084;SDS011;2057;50.858;6.572;2023-06-26T13:03:30;18.00;;;2.93;;
4084;SDS011;2057;50.858;6.572;2023-06-26T13:05:56;15.30;;;2.47;;
4084;SDS011;2057;50.858;6.572;2023-06-26T13:08:21;10.00;;;2.80;;
4084;SDS011;2057;50.858;6.572;2023-06-26T13:10:47;4.87;;;2.10;;
4084;SDS011;2057;50.858;6.572;2023-06-26T13:13:12;11.63;;;2.73;;
4084;SDS011;2057;50.858;6.572;2023-06-26T13:15:38;4.73;;;2.00;;
4084;SDS011;2057;50.858;6.572;2023-06-26T13:18:03;5.03;;;2.33;;
4084;SDS011;2057;50.858;6.572;2023-06-26T13:20:28;7.43;;;1.77;;
4084;SDS011;2057;50.858;6.572;2023-06-26T13:22:54;10.33;;;2.73;;
4084;SDS011;2057;50.858;6.572;2023-06-26T13:25:20;10.13;;;2.13;;
4084;SDS011;2057;50.858;6.572;2023-06-26T13:27:46;5.53;;;1.70;;
4084;SDS011;2057;50.858;6.572;2023-06-26T13:30:12;11.20;;;2.27;;
4084;SDS011;2057;50.858;6.572;2023-06-26T13:32:38;7.90;;;2.47;;
4084;SDS011;2057;50.858;6.572;2023-06-26T13:35:03;8.53;;;2.43;;
4084;SDS011;2057;50.858;6.572;2023-06-26T13:37:29;14.53;;;3.03;;
4084;SDS011;2057;50.858;6.572;2023-06-26T13:39:55;4.67;;;2.47;;
4084;SDS011;2057;50.858;6.572;2023-06-26T13:42:20;10.80;;;2.57;;
4084;SDS011;2057;50.858;6.572;2023-06-26T13:44:46;10.13;;;2.23;;
4084;SDS011;2057;50.858;6.572;2023-06-26T13:47:12;3.93;;;2.13;;
4084;SDS011;2057;50.858;6.572;2023-06-26T13:49:39;4.63;;;2.07;;
4084;SDS011;2057;50.858;6.572;2023-06-26T13:52:05;4.80;;;1.80;;
4084;SDS011;2057;50.858;6.572;2023-06-26T13:54:33;4.60;;;2.03;;
4084;SDS011;2057;50.858;6.572;2023-06-26T13:56:59;5.50;;;2.10;;
4084;SDS011;2057;50.858;6.572;2023-06-26T13:59:27;7.33;;;2.37;;
4084;SDS011;2057;50.858;6.572;2023-06-26T14:01:52;8.67;;;2.73;;
4084;SDS011;2057;50.858;6.572;2023-06-26T14:04:17;4.10;;;2.17;;
4084;SDS011;2057;50.858;6.572;2023-06-26T14:06:43;6.47;;;2.17;;
4084;SDS011;2057;50.858;6.572;2023-06-26T14:09:10;8.60;;;2.10;;
4084;SDS011;2057;50.858;6.572;2023-06-26T14:11:35;10.00;;;2.33;;
4084;SDS011;2057;50.858;6.572;2023-06-26T14:14:01;12.03;;;2.33;;
4084;SDS011;2057;50.858;6.572;2023-06-26T14:16:26;12.23;;;1.97;;
4084;SDS011;2057;50.858;6.572;2023-06-26T14:18:53;4.10;;;2.17;;
4084;SDS011;2057;50.858;6.572;2023-06-26T14:21:20;9.47;;;2.23;;
4084;SDS011;2057;50.858;6.572;2023-06-26T14:23:46;12.73;;;2.77;;
4084;SDS011;2057;50.858;6.572;2023-06-26T14:26:11;4.93;;;2.43;;
4084;SDS011;2057;50.858;6.572;2023-06-26T14:28:37;6.10;;;2.13;;
4084;SDS011;2057;50.858;6.572;2023-06-26T14:31:03;3.53;;;2.07;;
4084;SDS011;2057;50.858;6.572;2023-06-26T14:33:29;7.40;;;2.43;;
4084;SDS011;2057;50.858;6.572;2023-06-26T14:35:55;11.60;;;2.77;;
4084;SDS011;2057;50.858;6.572;2023-06-26T14:38:20;11.30;;;2.67;;
4084;SDS011;2057;50.858;6.572;2023-06-26T14:40:45;6.93;;;2.80;;
4084;SDS011;2057;50.858;6.572;2023-06-26T14:43:10;20.10;;;2.87;;
4084;SDS011;2057;50.858;6.572;2023-06-26T14:45:36;9.07;;;2.57;;
4084;SDS011;2057;50.858;6.572;2023-06-26T14:48:01;10.43;;;2.60;;
4084;SDS011;2057;50.858;6.572;2023-06-26T14:50:26;3.33;;;2.40;;
4084;SDS011;2057;50.858;6.572;2023-06-26T14:52:52;11.73;;;2.77;;
4084;SDS011;2057;50.858;6.572;2023-06-26T14:55:17;11.20;;;2.63;;
4084;SDS011;2057;50.858;6.572;2023-06-26T14:57:42;4.70;;;1.90;;
4084;SDS011;2057;50.858;6.572;2023-06-26T15:00:09;6.90;;;2.40;;
4084;SDS011;2057;50.858;6.572;2023-06-26T15:02:35;7.40;;;2.10;;
4084;SDS011;2057;50.858;6.572;2023-06-26T15:05:00;7.70;;;2.00;;
4084;SDS011;2057;50.858;6.572;2023-06-26T15:07:26;10.90;;;2.03;;
4084;SDS011;2057;50.858;6.572;2023-06-26T15:09:51;9.10;;;2.57;;
4084;SDS011;2057;50.858;6.572;2023-06-26T15:12:16;16.13;;;3.30;;
4084;SDS011;2057;50.858;6.572;2023-06-26T15:14:42;17.50;;;2.50;;
4084;SDS011;2057;50.858;6.572;2023-06-26T15:17:07;5.80;;;2.07;;
4084;SDS011;2057;50.858;6.572;2023-06-26T15:19:33;9.70;;;2.03;;
4084;SDS011;2057;50.858;6.572;2023-06-26T15:21:59;5.83;;;2.40;;
4084;SDS011;2057;50.858;6.572;2023-06-26T15:24:24;12.50;;;1.60;;